createdAt,value
2022-11-26T00:00:21.193Z,26.73
2022-11-26T00:02:54.315Z,28.98
2022-11-26T00:05:31.114Z,25.08
2022-11-26T00:08:05.079Z,27.80
2022-11-26T00:10:36.848Z,25.42
2022-11-26T00:13:18.034Z,24.73
2022-11-26T00:15:50.177Z,23.60
2022-11-26T00:18:26.849Z,26.85
2022-11-26T00:21:00.948Z,26.17
2022-11-26T00:23:32.704Z,26.80
2022-11-26T00:26:10.732Z,26.50
2022-11-26T00:28:57.875Z,23.52
2022-11-26T00:31:29.685Z,28.10
2022-11-26T00:34:01.404Z,23.65
2022-11-26T00:36:33.435Z,24.17
2022-11-26T00:39:10.028Z,25.00
2022-11-26T00:41:41.656Z,25.30
2022-11-26T00:44:25.019Z,24.63
2022-11-26T00:46:59.941Z,25.63
2022-11-26T00:49:34.700Z,24.27
2022-11-26T00:54:57.651Z,25.75
2022-11-26T00:57:29.282Z,25.87
2022-11-26T01:00:00.958Z,25.52
2022-11-26T01:02:32.605Z,24.10
2022-11-26T01:05:04.930Z,23.40
2022-11-26T01:07:36.967Z,26.75
2022-11-26T01:10:21.332Z,24.40
2022-11-26T01:12:53.442Z,26.85
2022-11-26T01:15:26.910Z,22.33
2022-11-26T01:17:58.577Z,23.55
2022-11-26T01:20:31.199Z,26.27
2022-11-26T01:23:02.849Z,23.25
2022-11-26T01:25:34.611Z,23.05
2022-11-26T01:28:10.947Z,22.33
2022-11-26T01:30:43.212Z,23.02
2022-11-26T01:33:15.984Z,22.70
2022-11-26T01:35:47.645Z,22.65
2022-11-26T01:38:19.390Z,26.42
2022-11-26T01:41:05.437Z,22.77
2022-11-26T01:43:41.948Z,21.58
2022-11-26T01:46:16.354Z,20.15
2022-11-26T01:48:50.188Z,22.15
2022-11-26T01:51:27.177Z,20.15
2022-11-26T01:54:02.180Z,22.60
2022-11-26T01:56:51.537Z,18.77
2022-11-26T01:59:30.248Z,22.77
2022-11-26T02:02:02.399Z,20.38
2022-11-26T02:04:41.963Z,20.08
2022-11-26T02:07:13.757Z,19.42
2022-11-26T02:09:46.720Z,19.25
2022-11-26T02:12:18.580Z,19.67
2022-11-26T02:14:50.265Z,18.30
2022-11-26T02:17:45.920Z,19.35
2022-11-26T02:20:48.453Z,19.92
2022-11-26T02:23:32.401Z,18.98
2022-11-26T02:26:21.878Z,20.27
2022-11-26T02:28:59.643Z,21.00
2022-11-26T02:31:41.999Z,18.52
2022-11-26T02:34:25.004Z,20.10
2022-11-26T02:37:12.746Z,18.95
2022-11-26T02:39:44.410Z,17.30
2022-11-26T02:42:29.457Z,22.02
2022-11-26T02:45:06.988Z,16.60
2022-11-26T02:47:42.366Z,17.67
2022-11-26T02:50:20.196Z,19.40
2022-11-26T02:52:54.677Z,20.35
2022-11-26T02:55:32.381Z,22.30
2022-11-26T02:58:05.523Z,20.67
2022-11-26T03:00:41.344Z,19.92
2022-11-26T03:03:26.546Z,14.38
2022-11-26T03:08:33.274Z,20.40
2022-11-26T03:11:05.977Z,15.73
2022-11-26T03:13:37.639Z,14.65
2022-11-26T03:16:09.403Z,15.32
2022-11-26T03:18:41.098Z,18.17
2022-11-26T03:21:12.801Z,15.60
2022-11-26T03:23:44.523Z,18.00
2022-11-26T03:26:16.222Z,14.77
2022-11-26T03:28:47.872Z,16.27
2022-11-26T03:31:19.597Z,18.38
2022-11-26T03:33:51.249Z,14.07
2022-11-26T03:36:22.849Z,14.05
2022-11-26T03:38:54.596Z,13.75
2022-11-26T03:41:26.271Z,22.00
2022-11-26T03:43:57.860Z,14.50
2022-11-26T03:46:29.878Z,16.50
2022-11-26T03:49:01.532Z,14.90
2022-11-26T03:51:33.283Z,16.65
2022-11-26T03:54:06.057Z,14.77
2022-11-26T03:56:37.740Z,14.30
2022-11-26T03:59:09.375Z,13.73
2022-11-26T04:01:42.258Z,15.77
2022-11-26T04:04:13.901Z,15.80
2022-11-26T04:06:45.737Z,16.10
2022-11-26T04:09:17.420Z,14.88
2022-11-26T04:11:52.050Z,12.68
2022-11-26T04:14:24.147Z,14.55
2022-11-26T04:16:55.865Z,13.85
2022-11-26T04:19:27.519Z,14.30
2022-11-26T04:21:59.304Z,16.60
2022-11-26T04:24:30.911Z,14.88
2022-11-26T04:27:02.612Z,16.45
2022-11-26T04:29:34.312Z,13.93
2022-11-26T04:32:06.416Z,16.50
2022-11-26T04:34:38.666Z,15.07
2022-11-26T04:37:10.550Z,15.80
2022-11-26T04:39:42.553Z,13.05
2022-11-26T04:42:14.237Z,16.45
2022-11-26T04:44:45.825Z,19.35
2022-11-26T04:47:17.577Z,18.77
2022-11-26T04:49:49.193Z,13.55
2022-11-26T04:52:20.844Z,15.80
2022-11-26T04:54:52.500Z,11.85
2022-11-26T04:57:24.127Z,13.25
2022-11-26T04:59:58.200Z,15.02
2022-11-26T05:02:29.887Z,15.90
2022-11-26T05:05:01.796Z,15.23
2022-11-26T05:07:34.129Z,14.88
2022-11-26T05:10:08.889Z,13.27
2022-11-26T05:12:40.745Z,14.98
2022-11-26T05:15:12.576Z,13.65
2022-11-26T05:17:44.356Z,14.65
2022-11-26T05:20:16.138Z,13.40
2022-11-26T05:22:47.773Z,14.48
2022-11-26T05:25:19.436Z,14.63
2022-11-26T05:27:51.022Z,14.70
2022-11-26T05:30:22.672Z,12.52
2022-11-26T05:32:54.374Z,17.40
2022-11-26T05:35:25.996Z,12.95
2022-11-26T05:37:57.745Z,14.07
2022-11-26T05:40:29.423Z,16.02
2022-11-26T05:43:01.069Z,14.70
2022-11-26T05:45:32.795Z,15.85
2022-11-26T05:48:04.812Z,14.85
2022-11-26T05:50:36.667Z,11.00
2022-11-26T05:53:08.348Z,14.57
2022-11-26T05:55:40.385Z,15.82
2022-11-26T05:58:12.016Z,13.48
2022-11-26T06:00:43.818Z,11.88
2022-11-26T06:03:19.748Z,15.93
2022-11-26T06:05:51.881Z,14.93
2022-11-26T06:08:23.630Z,13.30
2022-11-26T06:10:55.367Z,11.93
2022-11-26T06:13:27.104Z,16.20
2022-11-26T06:15:59.652Z,17.13
2022-11-26T06:18:31.466Z,13.32
2022-11-26T06:21:05.143Z,13.60
2022-11-26T06:23:36.803Z,14.50
2022-11-26T06:26:10.573Z,16.15
2022-11-26T06:28:42.284Z,13.83
2022-11-26T06:31:15.284Z,13.18
2022-11-26T06:33:47.152Z,13.40
2022-11-26T06:36:18.748Z,16.95
2022-11-26T06:38:50.784Z,12.77
2022-11-26T06:41:22.494Z,13.77
2022-11-26T06:43:54.188Z,14.48
2022-11-26T06:46:25.828Z,12.98
2022-11-26T06:49:05.488Z,19.77
2022-11-26T06:51:37.114Z,15.40
2022-11-26T06:54:08.781Z,14.90
2022-11-26T06:56:40.328Z,14.60
2022-11-26T06:59:12.006Z,18.02
2022-11-26T07:01:43.662Z,16.30
2022-11-26T07:04:15.524Z,15.23
2022-11-26T07:06:47.226Z,15.90
2022-11-26T07:09:18.854Z,14.48
2022-11-26T07:11:50.573Z,16.15
2022-11-26T07:14:22.712Z,15.85
2022-11-26T07:16:54.320Z,15.02
2022-11-26T07:19:26.247Z,12.57
2022-11-26T07:21:57.864Z,14.82
2022-11-26T07:24:29.520Z,14.40
2022-11-26T07:27:01.108Z,13.60
2022-11-26T07:29:32.776Z,15.52
2022-11-26T07:32:04.544Z,13.57
2022-11-26T07:34:36.522Z,14.05
2022-11-26T07:37:08.349Z,27.95
2022-11-26T07:39:40.058Z,17.10
2022-11-26T07:42:11.680Z,15.23
2022-11-26T07:44:43.308Z,12.05
2022-11-26T07:47:14.866Z,12.25
2022-11-26T07:49:49.204Z,10.90
2022-11-26T07:52:21.846Z,13.77
2022-11-26T07:54:53.499Z,12.75
2022-11-26T07:57:25.325Z,13.07
2022-11-26T07:59:57.115Z,13.00
2022-11-26T08:02:28.734Z,10.40
2022-11-26T08:05:00.360Z,11.13
2022-11-26T08:07:32.086Z,13.48
2022-11-26T08:10:05.140Z,10.43
2022-11-26T08:12:37.051Z,10.32
2022-11-26T08:15:09.366Z,8.75
2022-11-26T08:17:40.987Z,11.95
2022-11-26T08:20:12.766Z,10.77
2022-11-26T08:22:44.454Z,12.13
2022-11-26T08:25:16.494Z,10.57
2022-11-26T08:27:48.283Z,10.38
2022-11-26T08:30:20.006Z,11.18
2022-11-26T08:32:51.632Z,12.63
2022-11-26T08:35:34.403Z,11.60
2022-11-26T08:38:15.047Z,12.35
2022-11-26T08:40:49.884Z,14.65
2022-11-26T08:43:27.671Z,7.78
2022-11-26T08:46:11.465Z,8.32
2022-11-26T08:48:43.312Z,14.30
2022-11-26T08:51:17.718Z,13.27
2022-11-26T08:53:49.378Z,14.38
2022-11-26T08:56:25.809Z,10.65
2022-11-26T08:58:57.948Z,9.57
2022-11-26T09:01:32.630Z,13.30
2022-11-26T09:04:04.828Z,13.70
2022-11-26T09:06:37.135Z,12.30
2022-11-26T09:09:17.494Z,12.63
2022-11-26T09:11:57.667Z,10.40
2022-11-26T09:14:35.511Z,8.02
2022-11-26T09:17:09.937Z,10.50
2022-11-26T09:19:42.013Z,8.88
2022-11-26T09:22:14.727Z,9.90
2022-11-26T09:24:46.352Z,9.18
2022-11-26T09:27:18.232Z,10.48
2022-11-26T09:29:49.937Z,10.20
2022-11-26T09:32:26.137Z,8.10
2022-11-26T09:35:01.401Z,12.27
2022-11-26T09:37:33.224Z,9.25
2022-11-26T09:40:05.301Z,10.30
2022-11-26T09:43:14.756Z,8.40
2022-11-26T09:45:52.666Z,11.55
2022-11-26T09:48:26.309Z,8.68
2022-11-26T09:51:09.601Z,9.32
2022-11-26T09:53:45.982Z,11.32
2022-11-26T09:56:25.579Z,8.63
2022-11-26T09:59:01.793Z,9.20
2022-11-26T10:01:34.559Z,8.15
2022-11-26T10:04:07.798Z,7.90
2022-11-26T10:07:07.148Z,9.18
2022-11-26T10:10:20.164Z,8.30
2022-11-26T10:13:19.056Z,8.05
2022-11-26T10:16:03.807Z,9.02
2022-11-26T10:19:04.816Z,4.78
2022-11-26T10:21:59.810Z,8.00
2022-11-26T10:24:38.531Z,5.22
2022-11-26T10:27:15.681Z,9.30
2022-11-26T10:29:58.820Z,8.35
2022-11-26T10:32:42.332Z,7.07
2022-11-26T10:35:29.077Z,8.20
2022-11-26T10:38:03.734Z,9.20
2022-11-26T10:40:35.589Z,7.20
2022-11-26T10:43:12.815Z,5.35
2022-11-26T10:45:54.807Z,5.38
2022-11-26T10:48:30.415Z,7.72
2022-11-26T10:51:06.391Z,5.90
2022-11-26T10:53:50.933Z,8.70
2022-11-26T10:56:29.118Z,6.63
2022-11-26T10:59:05.099Z,6.93
2022-11-26T11:01:40.700Z,5.45
2022-11-26T11:04:32.093Z,5.78
2022-11-26T11:07:11.807Z,5.00
2022-11-26T11:09:43.778Z,7.10
2022-11-26T11:12:23.398Z,7.13
2022-11-26T11:14:55.108Z,9.15
2022-11-26T11:17:36.942Z,9.15
2022-11-26T11:20:22.101Z,6.38
2022-11-26T11:23:00.126Z,4.72
2022-11-26T11:25:38.569Z,8.18
2022-11-26T11:28:13.167Z,9.43
2022-11-26T11:30:46.353Z,6.65
2022-11-26T11:33:21.887Z,7.65
2022-11-26T11:36:05.555Z,8.88
2022-11-26T11:38:58.715Z,11.07
2022-11-26T11:41:39.704Z,6.03
2022-11-26T11:44:43.730Z,7.28
2022-11-26T11:47:42.977Z,6.88
2022-11-26T11:50:29.479Z,8.60
2022-11-26T11:53:09.955Z,10.38
2022-11-26T11:56:03.001Z,6.68
2022-11-26T11:58:52.837Z,8.23
2022-11-26T12:01:46.412Z,7.95
2022-11-26T12:04:21.567Z,9.10
2022-11-26T12:07:26.552Z,7.38
2022-11-26T12:10:24.409Z,8.40
2022-11-26T12:13:02.356Z,12.25
2022-11-26T12:15:43.073Z,7.03
2022-11-26T12:18:36.131Z,7.50
2022-11-26T12:21:25.397Z,8.85
2022-11-26T12:24:04.336Z,5.63
2022-11-26T12:26:47.674Z,9.40
2022-11-26T12:29:36.922Z,7.28
2022-11-26T12:32:25.403Z,9.68
2022-11-26T12:35:01.285Z,8.15
2022-11-26T12:37:39.596Z,12.77
2022-11-26T12:40:35.556Z,6.97
2022-11-26T12:43:13.504Z,11.25
2022-11-26T12:46:16.104Z,12.48
2022-11-26T12:49:03.389Z,7.35
2022-11-26T12:52:07.372Z,8.38
2022-11-26T12:55:00.305Z,10.48
2022-11-26T12:57:42.164Z,10.80
2022-11-26T13:00:25.673Z,7.20
2022-11-26T13:02:58.999Z,11.35
2022-11-26T13:05:58.334Z,11.07
2022-11-26T13:08:47.653Z,9.60
2022-11-26T13:11:40.774Z,8.23
2022-11-26T13:14:35.464Z,9.52
2022-11-26T13:17:16.322Z,7.95
2022-11-26T13:19:56.509Z,10.35
2022-11-26T13:22:46.665Z,9.57
2022-11-26T13:25:52.753Z,8.85
2022-11-26T13:29:20.891Z,8.40
2022-11-26T13:32:30.354Z,12.07
2022-11-26T13:35:18.865Z,10.70
2022-11-26T13:38:12.051Z,9.27
2022-11-26T13:41:07.924Z,7.13
2022-11-26T13:44:10.351Z,10.20
2022-11-26T13:46:55.738Z,8.02
2022-11-26T13:49:39.536Z,7.72
2022-11-26T13:52:11.170Z,8.40
2022-11-26T13:54:50.918Z,11.88
2022-11-26T13:57:31.466Z,12.93
2022-11-26T14:00:03.973Z,10.27
2022-11-26T14:02:56.953Z,9.98
2022-11-26T14:05:57.394Z,7.80
2022-11-26T14:08:55.869Z,9.18
2022-11-26T14:11:45.597Z,8.00
2022-11-26T14:14:26.255Z,7.30
2022-11-26T14:17:00.864Z,8.70
2022-11-26T14:19:41.440Z,10.35
2022-11-26T14:22:21.657Z,9.63
2022-11-26T14:25:04.310Z,8.15
2022-11-26T14:27:40.769Z,7.85
2022-11-26T14:30:16.639Z,12.00
2022-11-26T14:33:00.589Z,13.23
2022-11-26T14:35:36.286Z,7.70
2022-11-26T14:38:23.890Z,11.07
2022-11-26T14:40:58.108Z,8.20
2022-11-26T14:43:29.942Z,11.13
2022-11-26T14:46:12.984Z,7.68
2022-11-26T14:48:49.955Z,9.95
2022-11-26T14:51:26.041Z,14.63
2022-11-26T14:53:59.826Z,11.45
2022-11-26T14:56:31.811Z,6.43
2022-11-26T14:59:05.457Z,10.13
2022-11-26T15:01:42.819Z,10.40
2022-11-26T15:04:38.870Z,14.60
2022-11-26T15:07:24.792Z,8.63
2022-11-26T15:10:16.635Z,10.10
2022-11-26T15:12:53.093Z,7.55
2022-11-26T15:15:24.896Z,8.57
2022-11-26T15:18:01.178Z,9.48
2022-11-26T15:20:33.916Z,8.38
2022-11-26T15:23:06.852Z,10.35
2022-11-26T15:25:45.851Z,9.02
2022-11-26T15:28:23.719Z,11.48
2022-11-26T15:31:02.982Z,10.73
2022-11-26T15:33:37.094Z,8.90
2022-11-26T15:36:12.928Z,12.27
2022-11-26T15:39:07.329Z,9.70
2022-11-26T15:41:42.395Z,8.93
2022-11-26T15:44:22.320Z,9.48
2022-11-26T15:46:57.118Z,12.02
2022-11-26T15:52:15.404Z,11.23
2022-11-26T15:55:12.830Z,10.13
2022-11-26T15:57:51.399Z,11.35
2022-11-26T16:00:33.347Z,8.20
2022-11-26T16:03:34.821Z,15.40
2022-11-26T16:06:08.513Z,11.50
2022-11-26T16:08:57.677Z,9.60
2022-11-26T16:11:31.629Z,11.05
2022-11-26T16:14:22.993Z,17.65
2022-11-26T16:16:57.082Z,11.50
2022-11-26T16:19:30.136Z,11.50
2022-11-26T16:22:05.946Z,15.40
2022-11-26T16:24:42.688Z,12.52
2022-11-26T16:27:17.857Z,12.63
2022-11-26T16:29:49.698Z,12.48
2022-11-26T16:32:21.689Z,8.82
2022-11-26T16:34:53.422Z,10.82
2022-11-26T16:37:29.910Z,23.27
2022-11-26T16:40:16.955Z,13.35
2022-11-26T16:42:50.609Z,37.65
2022-11-26T16:45:22.195Z,39.17
2022-11-26T16:47:55.327Z,15.82
2022-11-26T16:50:27.966Z,19.52
2022-11-26T16:52:59.704Z,18.30
2022-11-26T16:55:31.416Z,21.83
2022-11-26T16:58:04.639Z,17.83
2022-11-26T17:00:36.289Z,19.10
2022-11-26T17:03:12.919Z,12.15
2022-11-26T17:05:46.198Z,11.00
2022-11-26T17:08:18.179Z,11.20
2022-11-26T17:10:52.632Z,12.02
2022-11-26T17:13:25.337Z,14.88
2022-11-26T17:15:57.830Z,12.77
2022-11-26T17:18:29.550Z,14.68
2022-11-26T17:21:01.260Z,12.63
2022-11-26T17:23:38.020Z,14.23
2022-11-26T17:26:20.896Z,15.85
2022-11-26T17:28:52.637Z,15.73
2022-11-26T17:31:24.345Z,12.60
2022-11-26T17:33:56.226Z,15.48
2022-11-26T17:36:35.338Z,12.52
2022-11-26T17:39:11.101Z,14.00
2022-11-26T17:41:42.828Z,11.43
2022-11-26T17:44:14.435Z,16.70
2022-11-26T17:47:09.536Z,13.70
2022-11-26T17:49:38.966Z,15.73
2022-11-26T17:52:11.187Z,12.90
2022-11-26T17:54:45.604Z,11.50
2022-11-26T17:57:17.580Z,21.65
2022-11-26T17:59:49.259Z,20.60
2022-11-26T18:02:20.913Z,21.58
2022-11-26T18:04:52.684Z,15.40
2022-11-26T18:07:24.378Z,17.50
2022-11-26T18:09:57.409Z,9.43
2022-11-26T18:12:31.734Z,20.00
2022-11-26T18:15:04.165Z,19.48
2022-11-26T18:17:36.067Z,18.35
2022-11-26T18:20:10.232Z,20.13
2022-11-26T18:22:42.207Z,20.20
2022-11-26T18:25:14.257Z,19.92
2022-11-26T18:27:48.930Z,15.07
2022-11-26T18:30:23.156Z,13.73
2022-11-26T18:32:54.804Z,16.80
2022-11-26T18:35:28.977Z,14.18
2022-11-26T18:38:00.599Z,18.15
2022-11-26T18:40:32.306Z,18.58
2022-11-26T18:43:04.912Z,13.73
2022-11-26T18:45:36.761Z,16.13
2022-11-26T18:48:08.441Z,16.48
2022-11-26T18:50:42.642Z,14.25
2022-11-26T18:53:14.329Z,17.65
2022-11-26T18:55:46.184Z,16.52
2022-11-26T18:58:18.601Z,15.65
2022-11-26T19:00:51.353Z,15.95
2022-11-26T19:03:22.990Z,17.00
2022-11-26T19:05:59.285Z,17.38
2022-11-26T19:08:32.306Z,16.70
2022-11-26T19:11:27.884Z,17.00
2022-11-26T19:14:00.237Z,18.85
2022-11-26T19:16:32.073Z,19.42
2022-11-26T19:19:03.815Z,21.05
2022-11-26T19:21:35.995Z,19.63
2022-11-26T19:24:08.884Z,22.58
2022-11-26T19:26:43.608Z,19.38
2022-11-26T19:29:18.002Z,16.27
2022-11-26T19:31:49.985Z,21.35
2022-11-26T19:34:21.613Z,19.70
2022-11-26T19:36:56.653Z,19.90
2022-11-26T19:39:28.282Z,27.17
2022-11-26T19:42:00.213Z,20.10
2022-11-26T19:44:31.893Z,20.10
2022-11-26T19:47:04.281Z,19.30
2022-11-26T19:49:35.948Z,16.33
2022-11-26T19:52:07.617Z,16.83
2022-11-26T19:54:39.660Z,19.17
2022-11-26T19:57:11.226Z,20.63
2022-11-26T19:59:42.850Z,17.67
2022-11-26T20:02:15.629Z,18.90
2022-11-26T20:04:47.552Z,21.60
2022-11-26T20:07:19.233Z,19.50
2022-11-26T20:09:52.379Z,23.23
2022-11-26T20:12:24.030Z,20.42
2022-11-26T20:14:55.607Z,21.73
2022-11-26T20:17:27.310Z,21.63
2022-11-26T20:19:59.143Z,19.33
2022-11-26T20:22:30.830Z,21.20
2022-11-26T20:25:02.464Z,16.15
2022-11-26T20:27:34.058Z,20.83
2022-11-26T20:30:06.724Z,16.27
2022-11-26T20:32:38.635Z,17.30
2022-11-26T20:35:11.108Z,17.65
2022-11-26T20:37:43.003Z,29.10
2022-11-26T20:40:15.788Z,21.33
2022-11-26T20:42:47.468Z,20.17
2022-11-26T20:45:19.461Z,22.75
2022-11-26T20:47:51.034Z,23.27
2022-11-26T20:50:22.866Z,20.10
2022-11-26T20:52:54.634Z,23.88
2022-11-26T20:55:26.276Z,21.33
2022-11-26T20:57:57.905Z,21.83
2022-11-26T21:00:29.537Z,17.25
2022-11-26T21:03:01.293Z,19.27
2022-11-26T21:05:33.658Z,19.00
2022-11-26T21:08:05.444Z,17.27
2022-11-26T21:10:39.394Z,17.88
2022-11-26T21:13:14.945Z,19.88
2022-11-26T21:15:49.423Z,17.55
2022-11-26T21:18:21.100Z,14.32
2022-11-26T21:20:53.980Z,21.45
2022-11-26T21:23:27.030Z,20.80
2022-11-26T21:25:58.633Z,20.52
2022-11-26T21:28:30.278Z,16.15
2022-11-26T21:31:17.137Z,25.42
2022-11-26T21:33:56.129Z,20.55
2022-11-26T21:36:29.656Z,16.70
2022-11-26T21:39:02.177Z,20.30
2022-11-26T21:41:34.222Z,19.52
2022-11-26T21:44:05.891Z,26.67
2022-11-26T21:46:38.798Z,19.95
2022-11-26T21:49:11.074Z,23.50
2022-11-26T21:51:43.006Z,22.52
2022-11-26T21:54:14.718Z,25.05
2022-11-26T21:56:46.308Z,20.05
2022-11-26T21:59:18.081Z,21.63
2022-11-26T22:01:49.870Z,21.95
2022-11-26T22:04:21.752Z,22.98
2022-11-26T22:06:53.506Z,18.63
2022-11-26T22:09:25.163Z,20.42
2022-11-26T22:11:56.730Z,21.23
2022-11-26T22:14:31.420Z,22.90
2022-11-26T22:17:03.540Z,20.80
2022-11-26T22:19:35.400Z,26.75
2022-11-26T22:22:06.970Z,24.55
2022-11-26T22:24:38.644Z,22.52
2022-11-26T22:27:10.616Z,25.50
2022-11-26T22:29:42.568Z,20.00
2022-11-26T22:32:14.307Z,25.77
2022-11-26T22:34:45.957Z,23.08
2022-11-26T22:37:17.562Z,17.88
2022-11-26T22:39:53.695Z,24.10
2022-11-26T22:42:25.789Z,24.45
2022-11-26T22:44:57.454Z,18.63
2022-11-26T22:47:29.035Z,22.85
2022-11-26T22:50:03.163Z,21.90
2022-11-26T22:52:34.889Z,26.50
2022-11-26T22:55:06.807Z,22.98
2022-11-26T22:57:38.406Z,23.38
2022-11-26T23:00:14.218Z,25.63
2022-11-26T23:02:46.070Z,24.77
2022-11-26T23:05:17.869Z,22.90
2022-11-26T23:07:49.497Z,25.27
2022-11-26T23:10:21.320Z,24.55
2022-11-26T23:12:52.948Z,28.08
2022-11-26T23:15:24.576Z,21.90
2022-11-26T23:17:56.233Z,22.17
2022-11-26T23:20:27.989Z,25.05
2022-11-26T23:23:03.382Z,24.65
2022-11-26T23:25:39.174Z,24.15
2022-11-26T23:28:10.787Z,24.42
2022-11-26T23:30:42.396Z,27.50
2022-11-26T23:33:14.008Z,29.02
2022-11-26T23:35:45.692Z,29.20
2022-11-26T23:38:17.262Z,26.38
2022-11-26T23:40:56.720Z,22.80
2022-11-26T23:43:29.576Z,28.63
2022-11-26T23:46:08.380Z,27.20
2022-11-26T23:48:40.597Z,20.42
2022-11-26T23:51:18.565Z,22.92
2022-11-26T23:53:50.817Z,24.77
2022-11-26T23:56:28.498Z,27.15
2022-11-26T23:59:02.810Z,24.45
